createdAt,value
2023-04-19T05:03:20.461Z,20.62
2023-04-19T05:04:21.505Z,20.83
2023-04-19T05:05:21.422Z,20.89
2023-04-19T05:06:21.420Z,20.93
2023-04-19T05:07:21.502Z,20.96
2023-04-19T05:08:21.465Z,20.98
2023-04-19T05:09:21.507Z,20.99
2023-04-19T05:10:21.546Z,20.99
2023-04-19T05:11:20.606Z,21.01
2023-04-19T05:12:20.626Z,21.01
2023-04-19T05:13:21.652Z,21.01
2023-04-19T05:14:21.668Z,21.01
2023-04-19T05:15:21.684Z,21.01
2023-04-19T05:16:20.714Z,21.02
2023-04-19T05:17:20.742Z,21.02
2023-04-19T05:18:20.745Z,21.02
2023-04-19T05:19:20.753Z,21.03
2023-04-19T05:20:21.765Z,21.02
2023-04-19T05:21:21.782Z,21.02
2023-04-19T05:22:21.774Z,21.02
2023-04-19T05:23:21.775Z,21.02
2023-04-19T05:24:21.808Z,21.01
2023-04-19T05:25:20.845Z,21.01
2023-04-19T05:26:21.864Z,21.01
2023-04-19T05:27:21.931Z,21.01
2023-04-19T05:28:20.922Z,21.01
2023-04-19T05:29:20.965Z,21.01
2023-04-19T05:30:21.994Z,21.00
2023-04-19T05:31:22.048Z,21.02
2023-04-19T05:32:22.098Z,21.02
2023-04-19T05:33:22.086Z,21.02
2023-04-19T05:34:22.518Z,21.01
2023-04-19T05:35:21.167Z,21.00
2023-04-19T05:36:22.166Z,21.00
2023-04-19T05:37:22.213Z,21.00
2023-04-19T05:38:22.221Z,21.00
2023-04-19T05:39:22.255Z,21.00
2023-04-19T05:40:22.273Z,21.00
2023-04-19T05:41:21.359Z,21.00
2023-04-19T05:42:22.318Z,21.01
2023-04-19T05:43:22.343Z,21.00
2023-04-19T05:44:21.367Z,20.99
2023-04-19T05:45:21.406Z,20.99
2023-04-19T05:46:22.522Z,20.99
2023-04-19T05:47:22.466Z,20.99
2023-04-19T05:48:22.493Z,20.99
2023-04-19T05:49:21.507Z,20.99
2023-04-19T05:50:22.527Z,20.99
2023-04-19T05:51:21.567Z,21.01
2023-04-19T05:52:22.637Z,21.01
2023-04-19T05:53:22.560Z,21.01
2023-04-19T05:54:22.550Z,21.01
2023-04-19T05:55:22.592Z,21.01
2023-04-19T05:56:22.549Z,21.01
2023-04-19T05:57:22.586Z,21.01
2023-04-19T05:58:21.593Z,21.01
2023-04-19T05:59:22.615Z,21.01
2023-04-19T06:00:22.635Z,21.02
2023-04-19T06:01:21.663Z,21.02
2023-04-19T06:02:23.149Z,21.03
2023-04-19T06:03:22.955Z,21.03
2023-04-19T06:04:23.427Z,21.05
2023-04-19T06:05:22.949Z,21.14
2023-04-19T06:06:22.886Z,21.19
2023-04-19T06:07:31.662Z,21.23
2023-04-19T06:08:22.780Z,21.26
2023-04-19T06:09:21.773Z,21.32
2023-04-19T06:10:22.772Z,21.38
2023-04-19T06:11:28.859Z,21.44
2023-04-19T06:12:22.833Z,21.50
2023-04-19T06:13:22.857Z,21.56
2023-04-19T06:14:21.722Z,21.61
2023-04-19T06:15:22.739Z,21.68
2023-04-19T06:16:21.755Z,21.76
2023-04-19T06:17:22.759Z,21.81
2023-04-19T06:18:22.710Z,21.86
2023-04-19T06:19:22.733Z,21.90
2023-04-19T06:20:22.725Z,21.95
2023-04-19T06:21:22.688Z,22.01
2023-04-19T06:22:22.683Z,22.05
2023-04-19T06:23:21.842Z,22.09
2023-04-19T06:28:19.448Z,22.20
2023-04-19T06:30:38.473Z,22.32
2023-04-19T06:31:39.410Z,22.41
2023-04-19T06:32:39.616Z,22.47
2023-04-19T06:33:39.626Z,22.52
2023-04-19T06:34:39.348Z,22.56
2023-04-19T06:36:57.464Z,22.58
2023-04-19T06:37:58.488Z,22.64
2023-04-19T06:38:57.542Z,22.69
2023-04-19T06:39:57.475Z,22.72
2023-04-19T06:40:58.420Z,22.75
2023-04-19T06:41:58.460Z,22.78
2023-04-19T06:42:58.449Z,22.81
2023-04-19T06:43:58.445Z,22.85
2023-04-19T06:44:58.448Z,22.88
2023-04-19T06:45:58.682Z,22.90
2023-04-19T06:46:58.524Z,22.92
2023-04-19T06:47:58.632Z,22.94
2023-04-19T06:48:58.617Z,22.96
2023-04-19T06:49:58.657Z,22.97
2023-04-19T06:50:57.885Z,23.00
2023-04-19T06:51:58.773Z,23.02
2023-04-19T06:52:59.166Z,22.99
2023-04-19T06:53:58.848Z,22.93
2023-04-19T06:54:58.938Z,22.89
2023-04-19T06:55:57.975Z,22.82
2023-04-19T06:56:59.015Z,22.77
2023-04-19T06:57:59.138Z,22.71
2023-04-19T06:58:59.065Z,22.66
2023-04-19T06:59:59.117Z,22.60
2023-04-19T07:00:58.142Z,22.55
2023-04-19T07:01:58.203Z,22.50
2023-04-19T07:02:58.266Z,22.48
2023-04-19T07:03:58.187Z,22.44
2023-04-19T07:04:58.156Z,22.40
2023-04-19T07:05:59.159Z,22.37
2023-04-19T07:06:59.134Z,22.34
2023-04-19T07:07:59.185Z,22.32
2023-04-19T07:08:59.232Z,22.29
2023-04-19T07:09:58.262Z,22.27
2023-04-19T07:10:59.338Z,22.26
2023-04-19T07:11:59.343Z,22.24
2023-04-19T07:12:59.411Z,22.23
2023-04-19T07:13:58.446Z,22.21
2023-04-19T07:14:59.563Z,22.19
2023-04-19T07:15:59.607Z,22.18
2023-04-19T07:16:58.616Z,22.17
2023-04-19T07:17:58.722Z,22.16
2023-04-19T07:18:58.742Z,22.15
2023-04-19T07:19:59.802Z,22.15
2023-04-19T07:20:59.901Z,22.14
2023-04-19T07:21:59.930Z,22.14
2023-04-19T07:22:59.974Z,22.13
2023-04-19T07:23:59.005Z,22.13
2023-04-19T07:25:00.056Z,22.12
2023-04-19T07:26:00.160Z,22.13
2023-04-19T07:26:59.258Z,22.12
2023-04-19T07:28:00.249Z,22.12
2023-04-19T07:28:59.230Z,22.13
2023-04-19T07:30:00.269Z,22.13
2023-04-19T07:31:00.306Z,22.12
2023-04-19T07:32:00.381Z,22.12
2023-04-19T07:33:00.415Z,22.12
2023-04-19T07:34:00.369Z,22.12
2023-04-19T07:35:00.691Z,22.12
2023-04-19T07:35:59.437Z,22.12
2023-04-19T07:36:59.497Z,22.12
2023-04-19T07:37:59.516Z,22.12
2023-04-19T07:39:00.599Z,22.11
2023-04-19T07:40:00.605Z,22.11
2023-04-19T07:40:59.646Z,22.11
2023-04-19T07:41:59.719Z,22.10
2023-04-19T07:43:00.808Z,22.10
2023-04-19T07:44:00.789Z,22.09
2023-04-19T07:45:00.848Z,22.09
2023-04-19T07:46:00.934Z,22.09
2023-04-19T07:47:01.002Z,22.09
2023-04-19T07:48:01.212Z,22.08
2023-04-19T07:49:01.015Z,22.08
2023-04-19T07:50:01.062Z,22.07
2023-04-19T07:51:01.119Z,22.06
2023-04-19T07:52:01.148Z,22.03
2023-04-19T07:53:01.685Z,22.01
2023-04-19T07:54:00.238Z,22.06
2023-04-19T07:55:01.275Z,22.00
2023-04-19T07:56:00.254Z,22.05
2023-04-19T07:57:01.276Z,22.07
2023-04-19T07:58:01.286Z,22.08
2023-04-19T07:59:08.292Z,22.08
2023-04-19T08:00:01.282Z,22.09
2023-04-19T08:01:01.340Z,22.11
2023-04-19T08:02:01.398Z,22.13
2023-04-19T08:03:01.452Z,22.15
2023-04-19T08:04:01.682Z,22.21
2023-04-19T08:05:01.375Z,22.25
2023-04-19T08:06:01.235Z,22.29
2023-04-19T08:07:01.244Z,22.32
2023-04-19T08:08:00.217Z,22.34
2023-04-19T08:09:01.242Z,22.37
2023-04-19T08:10:01.304Z,22.38
2023-04-19T08:11:02.036Z,22.41
2023-04-19T08:12:00.189Z,22.44
2023-04-19T08:13:05.195Z,22.44
2023-04-19T08:15:09.835Z,22.44
2023-04-19T08:16:20.428Z,22.43
2023-04-19T08:18:00.257Z,22.44
2023-04-19T08:19:00.148Z,22.45
2023-04-19T08:20:00.147Z,22.46
2023-04-19T08:21:00.152Z,22.48
2023-04-19T08:22:00.137Z,22.49
2023-04-19T08:23:07.571Z,22.50
2023-04-19T08:24:01.163Z,22.50
2023-04-19T08:25:01.116Z,22.52
2023-04-19T08:26:01.111Z,22.53
2023-04-19T08:27:01.113Z,22.55
2023-04-19T08:28:01.223Z,22.55
2023-04-19T08:29:01.089Z,22.58
2023-04-19T08:30:01.112Z,22.58
2023-04-19T08:31:01.192Z,22.59
2023-04-19T08:32:01.182Z,22.60
2023-04-19T08:33:01.221Z,22.62
2023-04-19T08:34:01.058Z,22.64
2023-04-19T08:35:01.047Z,22.68
2023-04-19T08:36:01.055Z,22.69
2023-04-19T08:37:04.598Z,22.69
2023-04-19T08:38:00.886Z,22.68
2023-04-19T08:39:24.900Z,22.70
2023-04-19T08:40:01.013Z,22.69
2023-04-19T08:41:01.020Z,22.69
2023-04-19T08:42:06.997Z,22.67
2023-04-19T08:43:01.208Z,22.62
2023-04-19T08:44:01.008Z,22.58
2023-04-19T08:46:01.020Z,22.51
2023-04-19T08:47:00.996Z,22.48
2023-04-19T08:48:02.037Z,22.46
2023-04-19T08:49:01.071Z,22.43
2023-04-19T08:50:11.758Z,22.40
2023-04-19T08:51:05.334Z,22.38
2023-04-19T08:52:01.051Z,22.36
2023-04-19T08:53:09.084Z,22.34
2023-04-19T08:54:01.069Z,22.31
2023-04-19T08:55:00.061Z,22.30
2023-04-19T08:57:00.029Z,22.27
2023-04-19T08:58:01.673Z,22.25
2023-04-19T08:59:15.640Z,22.23
2023-04-19T09:00:01.067Z,22.21
2023-04-19T09:01:00.046Z,22.19
2023-04-19T09:02:00.123Z,22.18
2023-04-19T09:03:01.562Z,22.17
2023-04-19T09:04:07.106Z,22.16
2023-04-19T09:05:01.173Z,22.14
2023-04-19T09:06:01.167Z,22.13
2023-04-19T09:06:59.998Z,22.12
2023-04-19T09:08:00.009Z,22.13
2023-04-19T09:09:00.998Z,22.12
2023-04-19T09:10:03.448Z,22.11
2023-04-19T09:10:59.969Z,22.09
2023-04-19T09:12:01.079Z,22.08
2023-04-19T09:13:00.976Z,22.06
2023-04-19T09:14:00.955Z,22.05
2023-04-19T09:15:02.605Z,22.03
2023-04-19T09:16:01.085Z,22.02
2023-04-19T09:16:59.995Z,22.02
2023-04-19T09:18:00.954Z,22.01
2023-04-19T09:19:11.739Z,22.00
2023-04-19T09:20:00.935Z,21.98
2023-04-19T09:21:00.916Z,21.98
2023-04-19T09:21:59.930Z,21.98
2023-04-19T09:23:00.980Z,21.98
2023-04-19T09:24:02.431Z,21.96
2023-04-19T09:27:00.869Z,21.94
2023-04-19T09:28:00.879Z,21.94
2023-04-19T09:29:00.860Z,21.94
2023-04-19T09:29:59.907Z,21.94
2023-04-19T09:31:10.909Z,21.93
2023-04-19T09:32:00.911Z,21.92
2023-04-19T09:33:00.930Z,21.92
2023-04-19T09:34:00.860Z,21.92
2023-04-19T09:34:59.922Z,21.92
2023-04-19T09:35:59.854Z,21.92
2023-04-19T09:37:12.124Z,21.91
2023-04-19T09:38:05.467Z,21.90
2023-04-19T09:39:00.773Z,21.90
2023-04-19T09:40:00.770Z,21.90
2023-04-19T09:40:59.773Z,21.90
2023-04-19T09:42:00.763Z,21.90
2023-04-19T09:43:14.984Z,21.90
2023-04-19T09:44:14.368Z,21.90
2023-04-19T09:45:27.805Z,21.89
2023-04-19T09:46:00.746Z,21.88
2023-04-19T09:47:00.783Z,21.88
2023-04-19T09:48:01.302Z,21.88
2023-04-19T09:49:03.984Z,21.88
2023-04-19T09:50:00.885Z,21.87
2023-04-19T09:51:05.053Z,21.87
2023-04-19T09:52:00.691Z,21.87
2023-04-19T09:52:59.736Z,21.87
2023-04-19T09:53:59.680Z,21.91
2023-04-19T09:55:01.874Z,21.96
2023-04-19T09:56:01.989Z,22.01
2023-04-19T09:57:01.614Z,22.05
2023-04-19T09:58:00.660Z,22.09
2023-04-19T09:59:12.562Z,22.13
2023-04-19T10:00:00.637Z,22.16
2023-04-19T10:01:10.628Z,22.20
2023-04-19T10:02:00.742Z,22.25
2023-04-19T10:03:00.683Z,22.31
2023-04-19T10:04:10.239Z,22.33
2023-04-19T10:05:16.397Z,22.38
2023-04-19T10:06:10.187Z,22.42
2023-04-19T10:08:00.709Z,22.47
2023-04-19T10:09:00.581Z,22.50
2023-04-19T10:10:11.693Z,22.54
2023-04-19T10:11:00.565Z,22.58
2023-04-19T10:12:07.864Z,22.61
2023-04-19T10:14:00.804Z,22.64
2023-04-19T10:14:59.583Z,22.68
2023-04-19T10:16:11.530Z,22.70
2023-04-19T10:17:00.608Z,22.72
2023-04-19T10:17:59.594Z,22.76
2023-04-19T10:19:00.650Z,22.79
2023-04-19T10:19:59.520Z,22.82
2023-04-19T10:21:00.521Z,22.86
2023-04-19T10:21:59.495Z,22.88
2023-04-19T10:23:00.544Z,22.89
2023-04-19T10:24:00.480Z,22.90
2023-04-19T10:25:00.489Z,22.96
2023-04-19T10:25:59.478Z,22.98
2023-04-19T10:27:00.477Z,22.98
2023-04-19T10:28:00.501Z,23.00
2023-04-19T10:28:59.482Z,23.02
2023-04-19T10:29:59.457Z,23.04
2023-04-19T10:30:59.438Z,23.06
2023-04-19T10:31:59.478Z,23.07
2023-04-19T10:33:00.487Z,23.08
2023-04-19T10:34:00.416Z,23.08
2023-04-19T10:35:00.439Z,23.08
2023-04-19T10:36:00.413Z,23.07
2023-04-19T10:37:00.390Z,23.07
2023-04-19T10:37:59.389Z,23.06
2023-04-19T10:39:00.592Z,23.06
2023-04-19T10:39:59.378Z,23.06
2023-04-19T10:41:00.393Z,23.05
2023-04-19T10:43:18.649Z,23.27
2023-04-19T10:44:19.644Z,23.25
2023-04-19T10:45:19.457Z,23.07
2023-04-19T10:46:19.507Z,22.65
2023-04-19T10:47:18.463Z,22.35
2023-04-19T10:48:19.463Z,21.95
2023-04-19T10:49:18.663Z,21.69
2023-04-19T10:50:19.413Z,21.63
2023-04-19T10:51:19.462Z,21.62
2023-04-19T10:52:19.407Z,21.67
2023-04-19T10:53:18.391Z,21.74
2023-04-19T10:54:18.397Z,21.82
2023-04-19T10:55:19.393Z,21.89
2023-04-19T10:56:19.348Z,21.96
2023-04-19T10:57:19.385Z,22.03
2023-04-19T10:58:19.440Z,22.09
2023-04-19T10:59:19.516Z,22.16
2023-04-19T11:00:19.405Z,22.22
2023-04-19T11:01:19.404Z,22.27
2023-04-19T11:02:19.482Z,22.30
2023-04-19T11:03:18.487Z,22.36
2023-04-19T11:04:19.525Z,22.41
2023-04-19T11:05:20.203Z,22.44
2023-04-19T11:06:18.463Z,22.51
2023-04-19T11:07:19.466Z,22.56
2023-04-19T11:08:18.517Z,22.58
2023-04-19T11:09:19.522Z,22.60
2023-04-19T11:10:19.576Z,22.62
2023-04-19T11:11:19.548Z,22.64
2023-04-19T11:12:19.537Z,22.66
2023-04-19T11:13:18.553Z,22.67
2023-04-19T11:14:19.557Z,22.69
2023-04-19T11:15:18.602Z,22.70
2023-04-19T11:16:20.433Z,22.70
2023-04-19T11:17:18.672Z,22.70
2023-04-19T11:18:19.719Z,22.71
2023-04-19T11:19:18.994Z,22.72
2023-04-19T11:20:19.706Z,22.73
2023-04-19T11:21:18.675Z,22.75
2023-04-19T11:22:19.689Z,22.75
2023-04-19T11:23:18.678Z,22.75
2023-04-19T11:24:18.787Z,22.77
2023-04-19T11:25:18.707Z,22.79
2023-04-19T11:26:18.754Z,22.81
2023-04-19T11:27:18.714Z,22.83
2023-04-19T11:28:19.735Z,22.82
2023-04-19T11:29:18.816Z,22.83
2023-04-19T11:30:19.839Z,22.69
2023-04-19T11:31:19.793Z,22.26
2023-04-19T11:32:18.839Z,22.00
2023-04-19T11:33:19.776Z,21.92
2023-04-19T11:34:19.068Z,21.89
2023-04-19T11:35:19.933Z,21.91
2023-04-19T11:36:19.968Z,21.94
2023-04-19T11:37:20.022Z,21.96
2023-04-19T11:38:19.026Z,21.99
2023-04-19T11:39:19.192Z,22.02
2023-04-19T11:40:19.037Z,22.04
2023-04-19T11:41:20.044Z,22.07
2023-04-19T11:42:20.135Z,22.08
2023-04-19T11:43:20.147Z,22.10
2023-04-19T11:44:20.383Z,22.11
2023-04-19T11:45:28.568Z,22.13
2023-04-19T11:46:20.308Z,22.13
2023-04-19T11:47:19.270Z,22.13
2023-04-19T11:48:20.269Z,22.15
2023-04-19T11:49:20.248Z,22.14
2023-04-19T11:50:19.260Z,22.14
2023-04-19T11:51:20.222Z,22.15
2023-04-19T11:52:19.231Z,22.14
2023-04-19T11:53:20.215Z,22.14
2023-04-19T11:54:19.400Z,22.15
2023-04-19T11:55:20.198Z,22.15
2023-04-19T11:56:19.186Z,22.15
2023-04-19T11:57:20.186Z,22.15
2023-04-19T11:58:20.205Z,22.14
2023-04-19T11:59:19.191Z,22.14
2023-04-19T12:00:20.165Z,22.14
2023-04-19T12:01:19.158Z,22.14
2023-04-19T12:02:20.284Z,22.14
2023-04-19T12:03:19.340Z,22.14
2023-04-19T12:04:19.409Z,22.13
2023-04-19T12:05:20.274Z,22.13
2023-04-19T12:06:20.134Z,22.12
2023-04-19T12:07:19.124Z,22.12
2023-04-19T12:08:19.106Z,22.12
2023-04-19T12:09:19.128Z,22.12
2023-04-19T12:10:19.175Z,22.12
2023-04-19T12:11:20.222Z,22.11
2023-04-19T12:12:20.267Z,22.11
2023-04-19T12:13:20.337Z,22.12
2023-04-19T12:14:20.419Z,22.11
2023-04-19T12:15:22.430Z,22.11
2023-04-19T12:16:20.529Z,22.10
2023-04-19T12:17:19.482Z,22.10
2023-04-19T12:18:19.498Z,22.10
2023-04-19T12:19:19.644Z,22.10
2023-04-19T12:20:19.426Z,22.08
2023-04-19T12:21:20.429Z,22.08
2023-04-19T12:22:20.433Z,22.07
2023-04-19T12:23:20.466Z,22.07
2023-04-19T12:24:20.548Z,22.07
2023-04-19T12:25:20.594Z,22.06
2023-04-19T12:26:20.664Z,22.05
2023-04-19T12:27:19.733Z,22.06
2023-04-19T12:28:20.799Z,22.04
2023-04-19T12:29:20.847Z,22.05
2023-04-19T12:30:20.953Z,22.04
2023-04-19T12:31:20.960Z,22.03
2023-04-19T12:32:20.102Z,22.03
2023-04-19T12:33:23.372Z,22.02
2023-04-19T12:34:20.094Z,22.02
2023-04-19T12:35:21.071Z,22.01
2023-04-19T12:36:20.062Z,22.01
2023-04-19T12:37:21.046Z,22.01
2023-04-19T12:38:21.044Z,22.00
2023-04-19T12:39:21.054Z,22.00
2023-04-19T12:40:21.072Z,22.00
2023-04-19T12:41:21.034Z,21.99
2023-04-19T12:42:20.021Z,22.00
2023-04-19T12:43:21.028Z,22.00
2023-04-19T12:44:21.011Z,22.00
2023-04-19T12:45:20.026Z,22.00
2023-04-19T12:46:21.137Z,21.99
2023-04-19T12:47:20.998Z,21.98
2023-04-19T12:48:19.992Z,22.00
2023-04-19T12:49:19.999Z,21.99
2023-04-19T12:50:20.106Z,21.99
2023-04-19T12:51:20.966Z,21.99
2023-04-19T12:52:19.956Z,21.99
2023-04-19T12:53:19.949Z,21.99
2023-04-19T12:54:19.946Z,21.99
2023-04-19T12:55:19.942Z,21.98
2023-04-19T12:56:19.925Z,21.98
2023-04-19T12:57:19.916Z,21.98
2023-04-19T12:58:20.933Z,21.98
2023-04-19T12:59:19.952Z,21.98
2023-04-19T13:00:20.010Z,21.98
2023-04-19T13:01:20.074Z,21.97
2023-04-19T13:02:20.222Z,21.98
2023-04-19T13:03:21.318Z,21.98
2023-04-19T13:04:20.642Z,21.98
2023-04-19T13:05:20.289Z,21.97
2023-04-19T13:06:21.361Z,21.97
2023-04-19T13:07:21.397Z,21.98
2023-04-19T13:08:26.078Z,21.97
2023-04-19T13:09:21.453Z,21.97
2023-04-19T13:10:20.451Z,21.97
2023-04-19T13:11:21.423Z,21.97
2023-04-19T13:12:21.428Z,21.97
2023-04-19T13:13:21.420Z,21.96
2023-04-19T13:14:21.417Z,21.96
2023-04-19T13:15:21.407Z,21.96
2023-04-19T13:16:21.436Z,21.96
2023-04-19T13:17:21.387Z,21.95
2023-04-19T13:18:21.412Z,21.95
2023-04-19T13:19:20.392Z,21.96
2023-04-19T13:20:20.372Z,21.95
2023-04-19T13:21:20.368Z,21.94
2023-04-19T13:22:20.368Z,21.94
2023-04-19T13:23:21.347Z,21.94
2023-04-19T13:24:21.352Z,21.94
2023-04-19T13:25:20.341Z,21.93
2023-04-19T13:26:20.414Z,21.93
2023-04-19T13:27:20.329Z,21.92
2023-04-19T13:28:21.329Z,21.92
2023-04-19T13:29:21.328Z,21.92
2023-04-19T13:30:20.316Z,21.91
2023-04-19T13:31:20.339Z,21.91
2023-04-19T13:32:20.304Z,21.91
2023-04-19T13:33:20.365Z,21.90
2023-04-19T13:34:21.489Z,21.90
2023-04-19T13:35:20.477Z,21.90
2023-04-19T13:36:21.558Z,21.89
2023-04-19T13:37:21.593Z,21.89
2023-04-19T13:38:20.658Z,21.89
2023-04-19T13:39:20.722Z,21.89
2023-04-19T13:40:21.810Z,21.88
2023-04-19T13:41:21.856Z,21.88
2023-04-19T13:42:21.901Z,21.88
2023-04-19T13:43:21.934Z,21.87
2023-04-19T13:44:22.026Z,21.87
2023-04-19T13:45:22.079Z,21.86
2023-04-19T13:46:21.184Z,21.86
2023-04-19T13:47:22.194Z,21.86
2023-04-19T13:48:21.253Z,21.86
2023-04-19T13:49:21.333Z,21.86
2023-04-19T13:50:22.409Z,21.85
2023-04-19T13:51:21.424Z,21.85
2023-04-19T13:52:22.526Z,21.85
2023-04-19T13:53:21.529Z,21.85
2023-04-19T13:54:21.620Z,21.84
2023-04-19T13:55:22.644Z,21.83
2023-04-19T13:56:21.673Z,21.83
2023-04-19T13:57:22.725Z,21.83
2023-04-19T13:58:22.784Z,21.83
2023-04-19T13:59:22.834Z,21.82
2023-04-19T14:00:21.885Z,21.82
2023-04-19T14:01:22.070Z,21.82
2023-04-19T14:02:22.048Z,21.81
2023-04-19T14:03:23.362Z,21.81
2023-04-19T14:04:22.586Z,21.80
2023-04-19T14:05:23.148Z,21.80
2023-04-19T14:06:23.241Z,21.80
2023-04-19T14:07:23.258Z,21.79
2023-04-19T14:08:23.293Z,21.79
2023-04-19T14:09:23.353Z,21.78
2023-04-19T14:10:23.465Z,21.79
2023-04-19T14:11:22.453Z,21.78
2023-04-19T14:12:22.510Z,21.78
2023-04-19T14:13:23.569Z,21.77
2023-04-19T14:14:23.549Z,21.77
2023-04-19T14:15:23.601Z,21.76
2023-04-19T14:16:23.758Z,21.77
2023-04-19T14:17:23.686Z,21.76
2023-04-19T14:18:23.736Z,21.76
2023-04-19T14:19:23.773Z,21.76
2023-04-19T14:20:22.826Z,21.77
2023-04-19T14:21:23.883Z,21.77
2023-04-19T14:22:23.974Z,21.78
2023-04-19T14:23:24.001Z,21.78
2023-04-19T14:24:23.049Z,21.78
2023-04-19T14:25:24.109Z,21.78
2023-04-19T14:26:25.371Z,21.79
2023-04-19T14:27:24.154Z,21.79
2023-04-19T14:28:24.177Z,21.79
2023-04-19T14:29:24.129Z,21.80
2023-04-19T14:30:24.132Z,21.80
2023-04-19T14:31:23.155Z,21.80
2023-04-19T14:32:26.611Z,21.80
2023-04-19T14:33:24.154Z,21.78
2023-04-19T14:34:24.118Z,21.79
2023-04-19T14:35:24.121Z,21.78
2023-04-19T14:36:23.083Z,21.78
2023-04-19T14:37:24.096Z,21.77
2023-04-19T14:38:23.113Z,21.76
2023-04-19T14:39:24.061Z,21.76
2023-04-19T14:40:24.068Z,21.77
2023-04-19T14:41:24.068Z,21.77
2023-04-19T14:42:23.238Z,21.77
2023-04-19T14:43:24.044Z,21.77
2023-04-19T14:44:24.036Z,21.76
2023-04-19T14:45:23.034Z,21.76
2023-04-19T14:46:24.191Z,21.77
2023-04-19T14:47:23.073Z,21.76
2023-04-19T14:48:23.013Z,21.76
2023-04-19T14:49:24.013Z,21.75
2023-04-19T14:50:24.006Z,21.76
2023-04-19T14:51:24.004Z,21.75
2023-04-19T14:52:23.012Z,21.75
2023-04-19T14:53:24.010Z,21.74
2023-04-19T14:54:23.005Z,21.75
2023-04-19T14:55:23.962Z,21.73
2023-04-19T14:56:24.008Z,21.73
2023-04-19T14:57:23.073Z,21.74
2023-04-19T14:58:24.088Z,21.74
2023-04-19T14:59:23.088Z,21.74
2023-04-19T15:00:23.138Z,21.74
2023-04-19T15:01:24.149Z,21.74
2023-04-19T15:02:23.283Z,21.73
2023-04-19T15:03:24.326Z,21.73
2023-04-19T15:04:24.285Z,21.72
2023-04-19T15:05:23.461Z,21.71
2023-04-19T15:06:23.145Z,21.70
2023-04-19T15:07:24.145Z,21.70
2023-04-19T15:08:30.688Z,21.69
2023-04-19T15:09:24.158Z,21.68
2023-04-19T15:10:24.166Z,21.68
2023-04-19T15:11:24.123Z,21.67
2023-04-19T15:12:24.135Z,21.67
2023-04-19T15:13:23.113Z,21.66
2023-04-19T15:14:24.107Z,21.65
2023-04-19T15:15:23.117Z,21.65
2023-04-19T15:16:23.143Z,21.65
2023-04-19T15:17:24.111Z,21.64
2023-04-19T15:18:24.105Z,21.63
2023-04-19T15:19:23.067Z,21.62
2023-04-19T15:20:23.067Z,21.62
2023-04-19T15:21:24.852Z,21.60
2023-04-19T15:22:23.071Z,21.60
2023-04-19T15:23:24.041Z,21.59
2023-04-19T15:24:24.053Z,21.58
2023-04-19T15:25:24.036Z,21.57
2023-04-19T15:26:24.164Z,21.55
2023-04-19T15:27:23.016Z,21.54
2023-04-19T15:28:24.014Z,21.53
2023-04-19T15:29:24.004Z,21.53
